createdAt,value
2022-11-29T00:01:44.266Z,100373.56
2022-11-29T00:04:13.567Z,100376.44
2022-11-29T00:06:41.501Z,100375.63
2022-11-29T00:09:11.640Z,100371.47
2022-11-29T00:11:58.311Z,100376.88
2022-11-29T00:14:26.692Z,100374.19
2022-11-29T00:16:55.654Z,100370.84
2022-11-29T00:19:25.014Z,100376.03
2022-11-29T00:21:52.936Z,100364.44
2022-11-29T00:24:20.914Z,100381.22
2022-11-29T00:26:49.110Z,100372.31
2022-11-29T00:29:17.068Z,100366.72
2022-11-29T00:31:45.342Z,100369.41
2022-11-29T00:34:13.410Z,100369.84
2022-11-29T00:36:42.678Z,100370.03
2022-11-29T00:39:12.122Z,100369.00
2022-11-29T00:41:40.210Z,100371.47
2022-11-29T00:44:08.154Z,100370.03
2022-11-29T00:46:36.132Z,100371.91
2022-11-29T00:49:04.092Z,100365.69
2022-11-29T00:51:31.937Z,100372.94
2022-11-29T00:54:01.291Z,100371.91
2022-11-29T00:56:29.217Z,100370.03
2022-11-29T00:58:57.178Z,100370.25
2022-11-29T01:01:25.215Z,100375.63
2022-11-29T01:03:53.203Z,100385.38
2022-11-29T01:06:21.124Z,100375.63
2022-11-29T01:08:49.647Z,100373.97
2022-11-29T01:11:20.473Z,100366.94
2022-11-29T01:13:48.371Z,100369.63
2022-11-29T01:16:16.434Z,100361.53
2022-11-29T01:18:44.505Z,100373.97
2022-11-29T01:21:13.230Z,100361.53
2022-11-29T01:23:41.336Z,100366.94
2022-11-29T01:26:10.372Z,100365.06
2022-11-29T01:28:40.302Z,100360.72
2022-11-29T01:31:08.748Z,100361.53
2022-11-29T01:33:36.956Z,100356.16
2022-11-29T01:36:05.634Z,100350.13
2022-11-29T01:38:33.688Z,100357.16
2022-11-29T01:41:02.656Z,100348.25
2022-11-29T01:43:30.654Z,100351.78
2022-11-29T01:46:00.152Z,100349.31
2022-11-29T01:48:29.818Z,100347.44
2022-11-29T01:50:59.464Z,100352.81
2022-11-29T01:53:27.358Z,100351.78
2022-11-29T01:55:57.251Z,100345.38
2022-11-29T01:58:25.222Z,100342.88
2022-11-29T02:00:53.230Z,100341.00
2022-11-29T02:03:22.586Z,100343.69
2022-11-29T02:05:51.521Z,100333.97
2022-11-29T02:08:22.839Z,100335.63
2022-11-29T02:10:59.957Z,100329.22
2022-11-29T02:13:31.165Z,100330.88
2022-11-29T02:16:01.215Z,100333.56
2022-11-29T02:18:35.039Z,100328.16
2022-11-29T02:21:32.630Z,100327.34
2022-11-29T02:24:38.992Z,100333.38
2022-11-29T02:27:59.214Z,100340.63
2022-11-29T02:30:38.073Z,100329.84
2022-11-29T02:33:50.403Z,100327.97
2022-11-29T02:36:33.512Z,100337.06
2022-11-29T02:39:27.790Z,100334.19
2022-11-29T02:42:11.707Z,100327.16
2022-11-29T02:44:49.659Z,100335.84
2022-11-29T02:47:25.870Z,100334.19
2022-11-29T02:50:06.854Z,100331.50
2022-11-29T02:52:39.291Z,100331.69
2022-11-29T02:55:09.468Z,100327.34
2022-11-29T02:57:39.593Z,100328.16
2022-11-29T03:00:08.972Z,100330.88
2022-11-29T03:02:39.596Z,100330.88
2022-11-29T03:05:13.907Z,100335.44
2022-11-29T03:07:47.708Z,100329.22
2022-11-29T03:10:21.411Z,100329.22
2022-11-29T03:12:50.053Z,100331.09
2022-11-29T03:15:22.742Z,100329.22
2022-11-29T03:17:58.864Z,100331.91
2022-11-29T03:20:29.928Z,100329.22
2022-11-29T03:23:09.265Z,100329.22
2022-11-29T03:25:40.657Z,100330.03
2022-11-29T03:28:14.574Z,100345.38
2022-11-29T03:30:45.471Z,100332.75
2022-11-29T03:33:16.063Z,100335.44
2022-11-29T03:35:47.702Z,100345.38
2022-11-29T03:38:20.428Z,100340.81
2022-11-29T03:40:51.340Z,100340.00
2022-11-29T03:43:22.766Z,100339.78
2022-11-29T03:45:53.618Z,100337.94
2022-11-29T03:48:23.284Z,100343.31
2022-11-29T03:50:53.087Z,100337.94
2022-11-29T03:53:25.170Z,100334.38
2022-11-29T03:55:55.575Z,100337.06
2022-11-29T03:58:39.109Z,100336.25
2022-11-29T04:01:37.583Z,100344.34
2022-11-29T04:04:48.976Z,100346.19
2022-11-29T04:07:26.861Z,100341.63
2022-11-29T04:10:09.616Z,100346.19
2022-11-29T04:13:04.786Z,100345.38
2022-11-29T04:16:11.754Z,100353.47
2022-11-29T04:19:05.629Z,100354.47
2022-11-29T04:21:38.155Z,100350.13
2022-11-29T04:24:36.425Z,100343.69
2022-11-29T04:27:38.401Z,100349.09
2022-11-29T04:30:17.883Z,100343.69
2022-11-29T04:33:06.625Z,100344.75
2022-11-29T04:35:43.946Z,100344.75
2022-11-29T04:38:30.974Z,100350.97
2022-11-29T04:41:15.432Z,100348.25
2022-11-29T04:44:07.666Z,100343.69
2022-11-29T04:46:44.255Z,100340.41
2022-11-29T04:49:23.383Z,100347.44
2022-11-29T04:52:08.436Z,100343.69
2022-11-29T04:54:36.699Z,100349.09
2022-11-29T04:57:07.644Z,100349.09
2022-11-29T04:59:40.870Z,100346.19
2022-11-29T05:02:11.198Z,100356.34
2022-11-29T05:04:45.908Z,100359.84
2022-11-29T05:07:18.156Z,100359.84
2022-11-29T05:09:52.043Z,100355.31
2022-11-29T05:12:22.055Z,100367.94
2022-11-29T05:15:06.268Z,100369.00
2022-11-29T05:17:37.800Z,100360.09
2022-11-29T05:20:18.205Z,100366.28
2022-11-29T05:22:49.812Z,100361.97
2022-11-29T05:25:34.437Z,100370.84
2022-11-29T05:28:09.834Z,100363.78
2022-11-29T05:33:30.407Z,100367.34
2022-11-29T05:36:02.917Z,100372.91
2022-11-29T05:39:01.997Z,100369.41
2022-11-29T05:41:40.556Z,100374.78
2022-11-29T05:44:10.412Z,100370.22
2022-11-29T05:46:41.123Z,100369.41
2022-11-29T05:49:18.501Z,100375.63
2022-11-29T05:51:49.598Z,100382.66
2022-11-29T05:54:25.390Z,100376.44
2022-11-29T05:56:58.152Z,100383.50
2022-11-29T05:59:27.648Z,100388.88
2022-11-29T06:01:59.099Z,100389.72
2022-11-29T06:04:32.952Z,100389.72
2022-11-29T06:07:04.214Z,100386.78
2022-11-29T06:09:34.479Z,100394.88
2022-11-29T06:12:13.401Z,100388.47
2022-11-29T06:14:52.672Z,100393.88
2022-11-29T06:17:39.274Z,100393.88
2022-11-29T06:20:21.310Z,100401.13
2022-11-29T06:23:29.171Z,100399.03
2022-11-29T06:26:04.459Z,100406.28
2022-11-29T06:28:49.764Z,100412.31
2022-11-29T06:31:18.908Z,100395.31
2022-11-29T06:33:52.818Z,100410.44
2022-11-29T06:36:24.646Z,100405.88
2022-11-29T06:38:52.889Z,100402.16
2022-11-29T06:41:21.939Z,100418.31
2022-11-29T06:43:50.411Z,100416.22
2022-11-29T06:46:24.663Z,100421.44
2022-11-29T06:48:57.842Z,100416.03
2022-11-29T06:51:34.103Z,100421.22
2022-11-29T06:54:07.515Z,100421.22
2022-11-29T06:56:40.716Z,100417.50
2022-11-29T06:59:11.968Z,100415.44
2022-11-29T07:01:41.761Z,100426.84
2022-11-29T07:04:26.501Z,100427.44
2022-11-29T07:06:56.433Z,100424.56
2022-11-29T07:09:26.700Z,100437.59
2022-11-29T07:11:55.100Z,100423.31
2022-11-29T07:14:23.854Z,100428.28
2022-11-29T07:16:57.275Z,100420.22
2022-11-29T07:19:31.047Z,100422.72
2022-11-29T07:22:05.405Z,100424.34
2022-11-29T07:24:40.452Z,100411.69
2022-11-29T07:27:11.651Z,100415.84
2022-11-29T07:29:42.914Z,100414.63
2022-11-29T07:32:14.067Z,100403.84
2022-11-29T07:34:52.562Z,100408.22
2022-11-29T07:37:25.057Z,100412.53
2022-11-29T07:39:56.454Z,100408.81
2022-11-29T07:46:39.393Z,100404.03
2022-11-29T07:49:07.598Z,100404.69
2022-11-29T07:51:35.894Z,100406.53
2022-11-29T07:54:05.254Z,100408.00
2022-11-29T07:56:33.269Z,100412.34
2022-11-29T07:59:01.522Z,100409.66
2022-11-29T08:01:29.661Z,100412.97
2022-11-29T08:03:57.710Z,100412.97
2022-11-29T08:06:26.417Z,100416.28
2022-11-29T08:08:54.383Z,100416.28
2022-11-29T08:11:23.645Z,100411.91
2022-11-29T08:13:51.619Z,100421.69
2022-11-29T08:16:19.662Z,100415.25
2022-11-29T08:18:48.157Z,100415.44
2022-11-29T08:21:18.068Z,100420.84
2022-11-29T08:23:46.039Z,100421.06
2022-11-29T08:26:14.330Z,100418.34
2022-11-29T08:32:26.221Z,100421.06
2022-11-29T08:34:54.260Z,100426.22
2022-11-29T08:37:22.303Z,100420.84
2022-11-29T08:39:50.288Z,100429.16
2022-11-29T08:42:18.226Z,100435.16
2022-11-29T08:44:47.861Z,100425.41
2022-11-29T08:47:33.575Z,100434.53
2022-11-29T08:50:02.915Z,100433.06
2022-11-29T08:52:48.516Z,100433.69
2022-11-29T08:55:16.587Z,100432.06
2022-11-29T08:57:44.548Z,100436.63
2022-11-29T09:00:19.355Z,100432.47
2022-11-29T09:02:47.289Z,100436.19
2022-11-29T09:05:16.679Z,100438.88
2022-11-29T09:07:46.469Z,100437.22
2022-11-29T09:10:16.094Z,100438.25
2022-11-29T09:12:44.851Z,100431.22
2022-11-29T09:15:14.176Z,100431.22
2022-11-29T09:17:42.203Z,100425.00
2022-11-29T09:20:12.424Z,100423.31
2022-11-29T09:22:41.785Z,100426.00
2022-11-29T09:25:10.366Z,100423.31
2022-11-29T09:27:38.318Z,100427.06
2022-11-29T09:30:23.454Z,100417.94
2022-11-29T09:32:51.976Z,100410.06
2022-11-29T09:35:19.997Z,100412.53
2022-11-29T09:37:49.515Z,100413.16
2022-11-29T09:40:19.238Z,100408.00
2022-11-29T09:42:52.748Z,100414.22
2022-11-29T09:45:21.395Z,100412.34
2022-11-29T09:48:22.934Z,100403.22
2022-11-29T09:50:53.394Z,100399.50
2022-11-29T09:53:31.341Z,100401.78
2022-11-29T09:56:06.230Z,100395.13
2022-11-29T09:58:38.125Z,100387.44
2022-11-29T10:01:07.517Z,100382.28
2022-11-29T10:03:39.623Z,100369.63
2022-11-29T10:06:09.710Z,100375.22
2022-11-29T10:08:41.896Z,100373.75
2022-11-29T10:11:19.639Z,100372.75
2022-11-29T10:13:50.207Z,100372.75
2022-11-29T10:16:22.556Z,100369.00
2022-11-29T10:18:51.888Z,100372.13
2022-11-29T10:21:21.499Z,100372.75
2022-11-29T10:23:52.220Z,100372.31
2022-11-29T10:26:20.864Z,100378.94
2022-11-29T10:28:49.466Z,100374.81
2022-11-29T10:31:23.411Z,100378.56
2022-11-29T10:33:51.415Z,100377.91
2022-11-29T10:36:23.496Z,100375.41
2022-11-29T10:38:53.044Z,100377.28
2022-11-29T10:41:22.250Z,100371.09
2022-11-29T10:43:50.257Z,100363.19
2022-11-29T10:46:24.322Z,100359.66
2022-11-29T10:48:52.298Z,100356.16
2022-11-29T10:51:20.315Z,100356.16
2022-11-29T10:53:48.288Z,100351.78
2022-11-29T10:56:22.376Z,100355.72
2022-11-29T10:58:58.360Z,100350.34
2022-11-29T11:01:29.405Z,100348.69
2022-11-29T11:03:57.939Z,100340.81
2022-11-29T11:06:26.480Z,100347.84
2022-11-29T11:08:55.609Z,100343.69
2022-11-29T11:11:29.867Z,100337.91
2022-11-29T11:14:01.881Z,100326.28
2022-11-29T11:16:35.607Z,100333.53
2022-11-29T11:19:26.076Z,100328.97
2022-11-29T11:21:54.007Z,100324.63
2022-11-29T11:24:24.287Z,100327.94
2022-11-29T11:26:53.664Z,100334.16
2022-11-29T11:29:23.350Z,100333.34
2022-11-29T11:31:55.828Z,100332.09
2022-11-29T11:34:30.425Z,100328.78
2022-11-29T11:37:12.899Z,100335.22
2022-11-29T11:39:40.818Z,100334.16
2022-11-29T11:42:29.105Z,100328.78
2022-11-29T11:45:40.498Z,100312.41
2022-11-29T11:48:13.050Z,100323.38
2022-11-29T11:50:43.750Z,100320.50
2022-11-29T11:53:20.269Z,100322.97
2022-11-29T11:55:55.794Z,100330.03
2022-11-29T11:58:25.359Z,100328.16
2022-11-29T12:01:09.407Z,100325.44
2022-11-29T12:03:45.818Z,100324.41
2022-11-29T12:06:28.821Z,100317.13
2022-11-29T12:08:59.283Z,100319.00
2022-11-29T12:11:27.219Z,100323.59
2022-11-29T12:14:05.725Z,100321.72
2022-11-29T12:16:39.598Z,100318.19
2022-11-29T12:19:13.696Z,100319.00
2022-11-29T12:21:44.120Z,100311.75
2022-11-29T12:24:17.917Z,100317.13
2022-11-29T12:27:02.578Z,100312.78
2022-11-29T12:29:41.009Z,100313.00
2022-11-29T12:32:20.205Z,100321.31
2022-11-29T12:34:58.046Z,100316.13
2022-11-29T12:37:28.931Z,100325.03
2022-11-29T12:39:58.373Z,100321.75
2022-11-29T12:42:32.882Z,100314.66
2022-11-29T12:45:05.947Z,100308.66
2022-11-29T12:47:42.042Z,100315.06
2022-11-29T12:50:34.957Z,100314.25
2022-11-29T12:53:12.586Z,100317.75
2022-11-29T12:55:46.384Z,100322.13
2022-11-29T12:58:18.216Z,100325.03
2022-11-29T13:01:04.417Z,100319.84
2022-11-29T13:03:35.355Z,100321.69
2022-11-29T13:06:09.671Z,100327.72
2022-11-29T13:08:51.799Z,100319.63
2022-11-29T13:11:21.795Z,100317.56
2022-11-29T13:13:51.284Z,100314.66
2022-11-29T13:16:31.756Z,100314.66
2022-11-29T13:19:01.441Z,100308.47
2022-11-29T13:21:32.003Z,100312.16
2022-11-29T13:24:09.702Z,100309.47
2022-11-29T13:26:38.546Z,100320.47
2022-11-29T13:29:24.785Z,100320.47
2022-11-29T13:31:55.363Z,100318.81
2022-11-29T13:34:25.197Z,100326.28
2022-11-29T13:37:04.385Z,100331.66
2022-11-29T13:39:50.006Z,100322.94
2022-11-29T13:42:20.756Z,100331.28
2022-11-29T13:48:39.124Z,100330.41
2022-11-29T13:51:31.694Z,100342.44
2022-11-29T13:54:02.104Z,100344.53
2022-11-29T13:56:36.770Z,100338.31
2022-11-29T13:59:07.839Z,100343.69
2022-11-29T14:01:45.219Z,100351.19
2022-11-29T14:04:24.602Z,100343.28
2022-11-29T14:07:02.731Z,100344.97
2022-11-29T14:09:32.008Z,100364.84
2022-11-29T14:12:03.485Z,100357.59
2022-11-29T14:14:37.596Z,100359.69
2022-11-29T14:17:07.171Z,100360.50
2022-11-29T14:19:37.162Z,100359.69
2022-11-29T14:22:31.017Z,100363.41
2022-11-29T14:25:11.789Z,100362.38
2022-11-29T14:27:59.026Z,100363.63
2022-11-29T14:30:49.484Z,100371.50
2022-11-29T14:33:44.729Z,100360.09
2022-11-29T14:36:26.676Z,100369.22
2022-11-29T14:39:00.837Z,100372.97
2022-11-29T14:41:33.168Z,100373.97
2022-11-29T14:44:14.511Z,100379.38
2022-11-29T14:46:42.482Z,100373.56
2022-11-29T14:49:22.655Z,100380.63
2022-11-29T14:52:11.373Z,100379.97
2022-11-29T14:54:54.804Z,100365.69
2022-11-29T14:57:55.484Z,100371.06
2022-11-29T15:00:24.111Z,100364.47
2022-11-29T15:02:54.208Z,100359.91
2022-11-29T15:05:24.387Z,100364.47
2022-11-29T15:07:57.579Z,100365.47
2022-11-29T15:10:27.475Z,100359.06
2022-11-29T15:12:56.420Z,100354.09
2022-11-29T15:16:08.912Z,100358.44
2022-11-29T15:19:14.518Z,100358.63
2022-11-29T15:21:46.752Z,100360.31
2022-11-29T15:24:17.576Z,100370.28
2022-11-29T15:26:56.067Z,100372.97
2022-11-29T15:29:24.713Z,100363.19
2022-11-29T15:31:55.008Z,100370.47
2022-11-29T15:34:29.044Z,100362.38
2022-11-29T15:36:57.016Z,100370.28
2022-11-29T15:39:31.463Z,100368.59
2022-11-29T15:42:08.302Z,100366.94
2022-11-29T15:44:37.341Z,100366.13
2022-11-29T15:51:05.631Z,100381.66
2022-11-29T15:53:37.862Z,100378.16
2022-11-29T15:56:14.178Z,100378.16
2022-11-29T15:58:42.862Z,100376.47
2022-11-29T16:01:10.845Z,100377.28
2022-11-29T16:03:40.895Z,100377.28
2022-11-29T16:06:09.879Z,100379.38
2022-11-29T16:08:42.623Z,100380.22
2022-11-29T16:11:15.158Z,100367.78
2022-11-29T16:13:45.573Z,100383.94
2022-11-29T16:16:16.516Z,100386.84
2022-11-29T16:18:45.899Z,100384.97
2022-11-29T16:21:24.399Z,100375.25
2022-11-29T16:23:53.571Z,100376.06
2022-11-29T16:26:23.909Z,100389.72
2022-11-29T16:28:54.354Z,100392.22
2022-11-29T16:31:25.504Z,100382.28
2022-11-29T16:33:54.554Z,100390.34
2022-11-29T16:36:23.642Z,100386.84
2022-11-29T16:38:53.395Z,100392.22
2022-11-29T16:41:33.987Z,100388.47
2022-11-29T16:44:04.181Z,100391.41
2022-11-29T16:46:50.782Z,100388.72
2022-11-29T16:49:34.450Z,100391.41
2022-11-29T16:52:02.630Z,100387.88
2022-11-29T16:54:35.733Z,100399.69
2022-11-29T16:57:06.890Z,100393.47
2022-11-29T16:59:37.709Z,100392.63
2022-11-29T17:03:01.275Z,100393.28
2022-11-29T17:05:30.041Z,100392.84
2022-11-29T17:07:58.010Z,100399.28
2022-11-29T17:10:27.163Z,100395.53
2022-11-29T17:12:56.491Z,100401.97
2022-11-29T17:19:55.213Z,100402.97
2022-11-29T17:22:23.191Z,100395.94
2022-11-29T17:24:52.276Z,100395.94
2022-11-29T17:27:20.316Z,100397.81
2022-11-29T17:29:50.383Z,100404.03
2022-11-29T17:33:17.630Z,100402.56
2022-11-29T17:35:48.119Z,100399.06
2022-11-29T17:38:16.068Z,100405.25
2022-11-29T17:40:46.683Z,100405.06
2022-11-29T17:43:14.559Z,100399.69
2022-11-29T17:46:38.676Z,100404.84
2022-11-29T17:49:09.352Z,100405.66
2022-11-29T17:51:54.289Z,100404.03
2022-11-29T17:54:23.374Z,100402.97
2022-11-29T17:56:52.215Z,100406.53
2022-11-29T17:59:21.696Z,100410.03
2022-11-29T18:01:49.909Z,100409.81
2022-11-29T18:04:20.104Z,100410.03
2022-11-29T18:06:50.241Z,100408.16
2022-11-29T18:09:19.410Z,100404.66
2022-11-29T18:11:49.277Z,100410.88
2022-11-29T18:14:19.528Z,100406.31
2022-11-29T18:17:40.351Z,100410.03
2022-11-29T18:20:11.381Z,100404.66
2022-11-29T18:22:39.303Z,100410.03
2022-11-29T18:25:37.670Z,100410.88
2022-11-29T18:30:29.278Z,100406.31
2022-11-29T18:32:58.135Z,100406.31
2022-11-29T18:35:30.798Z,100398.22
2022-11-29T18:38:14.510Z,100405.47
2022-11-29T18:40:46.368Z,100406.31
2022-11-29T18:43:14.582Z,100407.97
2022-11-29T18:50:00.665Z,100406.94
2022-11-29T18:52:30.229Z,100402.59
2022-11-29T18:54:59.901Z,100398.84
2022-11-29T18:57:27.768Z,100402.19
2022-11-29T18:59:56.531Z,100402.19
2022-11-29T19:02:24.567Z,100400.13
2022-11-29T19:04:53.343Z,100399.25
2022-11-29T19:07:21.296Z,100399.25
2022-11-29T19:09:51.497Z,100407.56
2022-11-29T19:12:19.469Z,100403.19
2022-11-29T19:14:50.135Z,100404.88
2022-11-29T19:17:18.211Z,100397.81
2022-11-29T19:19:46.301Z,100405.88
2022-11-29T19:22:15.219Z,100409.63
2022-11-29T19:24:43.375Z,100409.81
2022-11-29T19:27:14.244Z,100405.28
2022-11-29T19:29:42.252Z,100418.75
2022-11-29T19:32:12.804Z,100411.69
2022-11-29T19:34:41.550Z,100418.75
2022-11-29T19:37:11.340Z,100411.69
2022-11-29T19:39:39.372Z,100410.03
2022-11-29T19:42:08.775Z,100417.06
2022-11-29T19:45:08.695Z,100420.81
2022-11-29T19:47:26.792Z,100413.75
2022-11-29T19:49:57.826Z,100422.88
2022-11-29T19:52:30.839Z,100417.50
2022-11-29T19:54:59.741Z,100417.50
2022-11-29T19:57:28.822Z,100410.47
2022-11-29T19:59:58.098Z,100408.78
2022-11-29T20:02:26.900Z,100410.66
2022-11-29T20:04:55.019Z,100407.97
2022-11-29T20:07:23.811Z,100413.34
2022-11-29T20:09:51.771Z,100414.16
2022-11-29T20:12:20.552Z,100406.31
2022-11-29T20:14:48.524Z,100402.75
2022-11-29T20:17:18.732Z,100403.81
2022-11-29T20:19:46.995Z,100397.38
2022-11-29T20:22:16.134Z,100405.44
2022-11-29T20:24:45.501Z,100395.72
2022-11-29T20:27:20.112Z,100395.53
2022-11-29T20:29:48.647Z,100396.56
2022-11-29T20:32:18.509Z,100389.28
2022-11-29T20:34:47.830Z,100380.59
2022-11-29T20:37:33.629Z,100382.25
2022-11-29T20:40:02.943Z,100381.44
2022-11-29T20:42:55.420Z,100390.16
2022-11-29T20:45:25.417Z,100383.91
2022-11-29T20:47:57.911Z,100379.38
2022-11-29T20:50:27.082Z,100378.53
2022-11-29T20:53:07.703Z,100380.19
2022-11-29T20:55:42.548Z,100381.03
2022-11-29T20:58:15.069Z,100374.81
2022-11-29T21:00:42.954Z,100375.63
2022-11-29T21:03:17.029Z,100368.38
2022-11-29T21:05:46.050Z,100376.44
2022-11-29T21:08:15.912Z,100378.31
2022-11-29T21:10:43.877Z,100371.88
2022-11-29T21:13:12.941Z,100372.75
2022-11-29T21:15:41.433Z,100375.22
2022-11-29T21:18:14.950Z,100371.50
2022-11-29T21:20:44.458Z,100376.03
2022-11-29T21:23:16.893Z,100367.97
2022-11-29T21:25:48.672Z,100374.19
2022-11-29T21:28:18.145Z,100371.50
2022-11-29T21:30:46.606Z,100367.97
2022-11-29T21:33:15.937Z,100373.34
2022-11-29T21:35:46.026Z,100367.97
2022-11-29T21:38:16.899Z,100377.72
2022-11-29T21:40:44.883Z,100372.31
2022-11-29T21:43:15.061Z,100371.28
2022-11-29T21:45:43.129Z,100368.59
2022-11-29T21:48:32.056Z,100375.84
2022-11-29T21:51:01.430Z,100371.28
2022-11-29T21:53:32.535Z,100363.19
2022-11-29T21:56:02.469Z,100362.38
2022-11-29T21:58:31.945Z,100364.03
2022-11-29T22:01:07.058Z,100360.50
2022-11-29T22:03:35.874Z,100363.19
2022-11-29T22:06:06.100Z,100357.19
2022-11-29T22:08:36.362Z,100354.28
2022-11-29T22:11:04.910Z,100356.34
2022-11-29T22:13:33.620Z,100352.84
2022-11-29T22:16:08.661Z,100352.84
2022-11-29T22:18:37.492Z,100352.00
2022-11-29T22:21:08.083Z,100352.84
2022-11-29T22:23:36.799Z,100354.72
2022-11-29T22:26:05.820Z,100347.44
2022-11-29T22:28:34.568Z,100348.50
2022-11-29T22:31:04.101Z,100344.94
2022-11-29T22:33:32.969Z,100338.75
2022-11-29T22:36:07.403Z,100343.09
2022-11-29T22:38:36.178Z,100344.13
2022-11-29T22:41:05.033Z,100352.22
2022-11-29T22:43:33.908Z,100348.88
2022-11-29T22:46:06.112Z,100325.69
2022-11-29T22:48:38.680Z,100338.53
2022-11-29T22:51:09.373Z,100333.78
2022-11-29T22:53:39.650Z,100333.13
2022-11-29T22:56:09.614Z,100332.53
2022-11-29T22:58:39.658Z,100331.69
2022-11-29T23:01:10.809Z,100322.78
2022-11-29T23:03:40.207Z,100330.88
2022-11-29T23:06:11.690Z,100326.94
2022-11-29T23:08:42.189Z,100322.38
2022-11-29T23:11:13.013Z,100318.88
2022-11-29T23:13:42.919Z,100318.88
2022-11-29T23:16:12.213Z,100317.19
2022-11-29T23:18:42.398Z,100310.97
2022-11-29T23:21:12.499Z,100295.88
2022-11-29T23:23:40.697Z,100301.44
2022-11-29T23:26:08.811Z,100289.63
2022-11-29T23:28:37.041Z,100297.69
2022-11-29T23:31:07.347Z,100301.44
2022-11-29T23:33:35.375Z,100298.75
2022-11-29T23:36:04.646Z,100302.50
2022-11-29T23:38:34.335Z,100302.91
2022-11-29T23:41:02.315Z,100308.28
2022-11-29T23:43:30.333Z,100304.75
2022-11-29T23:45:58.343Z,100308.50
2022-11-29T23:48:26.471Z,100306.63
2022-11-29T23:50:54.387Z,100306.84
2022-11-29T23:53:22.417Z,100299.59
2022-11-29T23:55:58.648Z,100307.66
2022-11-29T23:58:26.612Z,100303.47
